sensor_id;sensor_type;location;lat;lon;timestamp;pressure;altitude;pressure_sealevel;temperature;humidity
12471;BME280;36499;46.484;13.832;2023-06-22T00:01:19;93675.44;;;19.53;100.00
12471;BME280;36499;46.484;13.832;2023-06-22T00:03:46;93674.34;;;19.49;100.00
12471;BME280;36499;46.484;13.832;2023-06-22T00:06:14;93680.28;;;19.34;100.00
12471;BME280;36499;46.484;13.832;2023-06-22T00:08:41;93669.19;;;19.37;100.00
12471;BME280;36499;46.484;13.832;2023-06-22T00:11:08;93669.44;;;19.36;100.00
12471;BME280;36499;46.484;13.832;2023-06-22T00:13:35;93683.59;;;19.46;100.00
12471;BME280;36499;46.484;13.832;2023-06-22T00:16:03;93672.28;;;19.56;100.00
12471;BME280;36499;46.484;13.832;2023-06-22T00:18:31;93675.22;;;19.59;100.00
12471;BME280;36499;46.484;13.832;2023-06-22T00:20:59;93677.56;;;19.56;99.95
12471;BME280;36499;46.484;13.832;2023-06-22T00:23:26;93677.06;;;19.59;99.84
12471;BME280;36499;46.484;13.832;2023-06-22T00:25:54;93675.75;;;19.61;99.20
12471;BME280;36499;46.484;13.832;2023-06-22T00:28:21;93679.75;;;19.64;98.95
12471;BME280;36499;46.484;13.832;2023-06-22T00:30:49;93681.63;;;19.69;98.63
12471;BME280;36499;46.484;13.832;2023-06-22T00:33:16;93673.69;;;19.69;98.00
12471;BME280;36499;46.484;13.832;2023-06-22T00:35:44;93676.28;;;19.63;98.54
12471;BME280;36499;46.484;13.832;2023-06-22T00:38:11;93675.75;;;19.61;98.65
12471;BME280;36499;46.484;13.832;2023-06-22T00:40:39;93677.66;;;19.66;98.36
12471;BME280;36499;46.484;13.832;2023-06-22T00:43:06;93677.66;;;19.66;98.28
12471;BME280;36499;46.484;13.832;2023-06-22T00:45:33;93680.53;;;19.64;98.19
12471;BME280;36499;46.484;13.832;2023-06-22T00:48:01;93676.06;;;19.65;97.82
12471;BME280;36499;46.484;13.832;2023-06-22T00:50:31;93677.56;;;19.56;97.70
12471;BME280;36499;46.484;13.832;2023-06-22T00:53:06;93674.03;;;19.45;98.33
12471;BME280;36499;46.484;13.832;2023-06-22T00:55:35;93675.22;;;19.33;99.47
12471;BME280;36499;46.484;13.832;2023-06-22T00:58:05;93672.00;;;19.26;100.00
12471;BME280;36499;46.484;13.832;2023-06-22T01:00:36;93675.09;;;19.17;100.00
12471;BME280;36499;46.484;13.832;2023-06-22T01:03:04;93663.44;;;19.13;100.00
12471;BME280;36499;46.484;13.832;2023-06-22T01:05:35;93671.00;;;19.05;100.00
12471;BME280;36499;46.484;13.832;2023-06-22T01:08:22;93672.13;;;19.09;100.00
12471;BME280;36499;46.484;13.832;2023-06-22T01:10:54;93669.72;;;19.07;100.00
12471;BME280;36499;46.484;13.832;2023-06-22T01:13:39;93667.63;;;19.09;100.00
12471;BME280;36499;46.484;13.832;2023-06-22T01:16:16;93661.72;;;19.02;100.00
12471;BME280;36499;46.484;13.832;2023-06-22T01:18:47;93661.19;;;19.00;100.00
12471;BME280;36499;46.484;13.832;2023-06-22T01:21:20;93655.84;;;18.95;100.00
12471;BME280;36499;46.484;13.832;2023-06-22T01:24:01;93653.50;;;18.99;100.00
12471;BME280;36499;46.484;13.832;2023-06-22T01:26:38;93649.31;;;19.03;100.00
12471;BME280;36499;46.484;13.832;2023-06-22T01:29:10;93650.69;;;18.84;100.00
12471;BME280;36499;46.484;13.832;2023-06-22T01:31:40;93629.34;;;18.85;100.00
12471;BME280;36499;46.484;13.832;2023-06-22T01:34:09;93626.94;;;18.84;100.00
12471;BME280;36499;46.484;13.832;2023-06-22T01:36:39;93625.59;;;18.81;100.00
12471;BME280;36499;46.484;13.832;2023-06-22T01:39:07;93630.94;;;18.86;100.00
12471;BME280;36499;46.484;13.832;2023-06-22T01:41:37;93621.94;;;18.87;100.00
12471;BME280;36499;46.484;13.832;2023-06-22T01:44:07;93624.63;;;18.92;100.00
12471;BME280;36499;46.484;13.832;2023-06-22T01:46:37;93624.03;;;18.85;99.43
12471;BME280;36499;46.484;13.832;2023-06-22T01:49:05;93622.84;;;18.71;100.00
12471;BME280;36499;46.484;13.832;2023-06-22T01:51:33;93616.66;;;18.60;100.00
12471;BME280;36499;46.484;13.832;2023-06-22T01:54:01;93620.66;;;18.63;100.00
12471;BME280;36499;46.484;13.832;2023-06-22T01:56:28;93617.50;;;18.66;100.00
12471;BME280;36499;46.484;13.832;2023-06-22T01:59:04;93612.00;;;18.67;100.00
12471;BME280;36499;46.484;13.832;2023-06-22T02:01:43;93615.41;;;18.68;100.00
12471;BME280;36499;46.484;13.832;2023-06-22T02:04:17;93602.75;;;18.70;100.00
12471;BME280;36499;46.484;13.832;2023-06-22T02:06:51;93602.41;;;18.61;100.00
12471;BME280;36499;46.484;13.832;2023-06-22T02:09:22;93614.47;;;18.52;100.00
12471;BME280;36499;46.484;13.832;2023-06-22T02:11:54;93598.22;;;18.44;100.00
12471;BME280;36499;46.484;13.832;2023-06-22T02:14:24;93602.41;;;18.40;100.00
12471;BME280;36499;46.484;13.832;2023-06-22T02:16:53;93599.28;;;18.43;100.00
12471;BME280;36499;46.484;13.832;2023-06-22T02:19:23;93597.50;;;18.48;100.00
12471;BME280;36499;46.484;13.832;2023-06-22T02:21:51;93593.66;;;18.56;100.00
12471;BME280;36499;46.484;13.832;2023-06-22T02:24:18;93595.91;;;18.47;100.00
12471;BME280;36499;46.484;13.832;2023-06-22T02:26:45;93590.91;;;18.51;100.00
12471;BME280;36499;46.484;13.832;2023-06-22T02:29:12;93594.00;;;18.43;100.00
12471;BME280;36499;46.484;13.832;2023-06-22T02:31:39;93596.19;;;18.51;100.00
12471;BME280;36499;46.484;13.832;2023-06-22T02:34:07;93597.31;;;18.55;100.00
12471;BME280;36499;46.484;13.832;2023-06-22T02:36:34;93603.72;;;18.59;100.00
12471;BME280;36499;46.484;13.832;2023-06-22T02:39:01;93601.88;;;18.59;100.00
12471;BME280;36499;46.484;13.832;2023-06-22T02:41:29;93609.22;;;18.57;100.00
12471;BME280;36499;46.484;13.832;2023-06-22T02:43:56;93602.50;;;18.50;100.00
12471;BME280;36499;46.484;13.832;2023-06-22T02:46:23;93600.88;;;18.44;100.00
12471;BME280;36499;46.484;13.832;2023-06-22T02:48:50;93605.28;;;18.38;100.00
12471;BME280;36499;46.484;13.832;2023-06-22T02:51:19;93605.16;;;18.50;100.00
12471;BME280;36499;46.484;13.832;2023-06-22T02:53:46;93606.84;;;18.56;100.00
12471;BME280;36499;46.484;13.832;2023-06-22T02:56:13;93606.59;;;18.57;100.00
12471;BME280;36499;46.484;13.832;2023-06-22T02:58:41;93608.13;;;18.53;100.00
12471;BME280;36499;46.484;13.832;2023-06-22T03:01:08;93607.50;;;18.46;100.00
12471;BME280;36499;46.484;13.832;2023-06-22T03:03:38;93611.94;;;18.19;100.00
12471;BME280;36499;46.484;13.832;2023-06-22T03:06:05;93609.06;;;18.20;100.00
12471;BME280;36499;46.484;13.832;2023-06-22T03:08:34;93612.31;;;18.28;100.00
12471;BME280;36499;46.484;13.832;2023-06-22T03:11:01;93611.81;;;18.31;100.00
12471;BME280;36499;46.484;13.832;2023-06-22T03:13:28;93611.56;;;18.32;100.00
12471;BME280;36499;46.484;13.832;2023-06-22T03:15:55;93614.72;;;18.29;100.00
12471;BME280;36499;46.484;13.832;2023-06-22T03:18:22;93612.81;;;18.25;100.00
12471;BME280;36499;46.484;13.832;2023-06-22T03:20:49;93620.66;;;18.19;100.00
12471;BME280;36499;46.484;13.832;2023-06-22T03:23:16;93620.34;;;18.16;100.00
12471;BME280;36499;46.484;13.832;2023-06-22T03:25:45;93620.31;;;18.11;100.00
12471;BME280;36499;46.484;13.832;2023-06-22T03:28:12;93625.56;;;18.11;100.00
12471;BME280;36499;46.484;13.832;2023-06-22T03:30:39;93617.97;;;18.14;100.00
12471;BME280;36499;46.484;13.832;2023-06-22T03:33:06;93613.22;;;18.16;100.00
12471;BME280;36499;46.484;13.832;2023-06-22T03:35:33;93617.47;;;18.17;100.00
12471;BME280;36499;46.484;13.832;2023-06-22T03:38:00;93623.84;;;18.21;100.00
12471;BME280;36499;46.484;13.832;2023-06-22T03:40:27;93617.66;;;18.11;100.00
12471;BME280;36499;46.484;13.832;2023-06-22T03:42:56;93615.66;;;18.23;100.00
12471;BME280;36499;46.484;13.832;2023-06-22T03:45:23;93608.50;;;18.18;100.00
12471;BME280;36499;46.484;13.832;2023-06-22T03:47:50;93605.13;;;18.23;100.00
12471;BME280;36499;46.484;13.832;2023-06-22T03:50:17;93608.69;;;18.12;100.00
12471;BME280;36499;46.484;13.832;2023-06-22T03:52:46;93613.56;;;18.03;100.00
12471;BME280;36499;46.484;13.832;2023-06-22T03:55:13;93606.16;;;18.00;100.00
12471;BME280;36499;46.484;13.832;2023-06-22T03:57:40;93603.09;;;18.08;100.00
12471;BME280;36499;46.484;13.832;2023-06-22T04:00:10;93605.44;;;18.05;100.00
12471;BME280;36499;46.484;13.832;2023-06-22T04:02:37;93613.03;;;18.01;100.00
12471;BME280;36499;46.484;13.832;2023-06-22T04:05:05;93610.28;;;18.13;100.00
12471;BME280;36499;46.484;13.832;2023-06-22T04:07:32;93605.25;;;18.11;100.00
12471;BME280;36499;46.484;13.832;2023-06-22T04:10:00;93611.88;;;18.14;100.00
12471;BME280;36499;46.484;13.832;2023-06-22T04:12:27;93602.28;;;18.08;100.00
12471;BME280;36499;46.484;13.832;2023-06-22T04:14:54;93599.50;;;18.14;100.00
12471;BME280;36499;46.484;13.832;2023-06-22T04:17:22;93599.53;;;18.19;100.00
12471;BME280;36499;46.484;13.832;2023-06-22T04:19:50;93599.84;;;18.23;100.00
12471;BME280;36499;46.484;13.832;2023-06-22T04:22:17;93608.25;;;18.20;100.00
12471;BME280;36499;46.484;13.832;2023-06-22T04:24:45;93609.66;;;18.28;100.00
12471;BME280;36499;46.484;13.832;2023-06-22T04:27:12;93603.34;;;18.29;100.00
12471;BME280;36499;46.484;13.832;2023-06-22T04:29:39;93604.09;;;18.24;100.00
12471;BME280;36499;46.484;13.832;2023-06-22T04:32:14;93594.38;;;18.30;100.00
12471;BME280;36499;46.484;13.832;2023-06-22T04:34:43;93601.41;;;18.46;100.00
12471;BME280;36499;46.484;13.832;2023-06-22T04:37:10;93602.03;;;18.53;100.00
12471;BME280;36499;46.484;13.832;2023-06-22T04:39:41;93600.56;;;18.62;100.00
12471;BME280;36499;46.484;13.832;2023-06-22T04:42:08;93590.28;;;18.65;100.00
12471;BME280;36499;46.484;13.832;2023-06-22T04:44:35;93594.53;;;18.66;100.00
12471;BME280;36499;46.484;13.832;2023-06-22T04:47:03;93585.28;;;18.64;100.00
12471;BME280;36499;46.484;13.832;2023-06-22T04:49:35;93582.16;;;18.72;100.00
12471;BME280;36499;46.484;13.832;2023-06-22T04:52:07;93574.59;;;18.81;100.00
12471;BME280;36499;46.484;13.832;2023-06-22T04:54:37;93577.53;;;18.84;100.00
12471;BME280;36499;46.484;13.832;2023-06-22T04:57:07;93573.91;;;18.95;100.00
12471;BME280;36499;46.484;13.832;2023-06-22T04:59:37;93577.88;;;18.93;100.00
12471;BME280;36499;46.484;13.832;2023-06-22T05:02:05;93572.81;;;18.86;100.00
12471;BME280;36499;46.484;13.832;2023-06-22T05:04:33;93574.59;;;18.81;100.00
12471;BME280;36499;46.484;13.832;2023-06-22T05:07:04;93568.56;;;18.85;100.00
12471;BME280;36499;46.484;13.832;2023-06-22T05:09:31;93568.69;;;19.00;100.00
12471;BME280;36499;46.484;13.832;2023-06-22T05:11:59;93563.00;;;19.13;100.00
12471;BME280;36499;46.484;13.832;2023-06-22T05:14:28;93567.50;;;19.18;100.00
12471;BME280;36499;46.484;13.832;2023-06-22T05:16:55;93567.13;;;19.36;100.00
12471;BME280;36499;46.484;13.832;2023-06-22T05:19:24;93572.13;;;19.38;100.00
12471;BME280;36499;46.484;13.832;2023-06-22T05:21:59;93562.72;;;19.52;100.00
12471;BME280;36499;46.484;13.832;2023-06-22T05:24:27;93558.59;;;19.66;100.00
12471;BME280;36499;46.484;13.832;2023-06-22T05:26:54;93569.28;;;19.81;100.00
12471;BME280;36499;46.484;13.832;2023-06-22T05:29:21;93565.78;;;19.76;99.40
12471;BME280;36499;46.484;13.832;2023-06-22T05:31:48;93563.47;;;19.84;100.00
12471;BME280;36499;46.484;13.832;2023-06-22T05:34:15;93559.84;;;20.00;100.00
12471;BME280;36499;46.484;13.832;2023-06-22T05:36:43;93562.00;;;20.13;99.78
12471;BME280;36499;46.484;13.832;2023-06-22T05:39:14;93561.31;;;20.33;99.60
12471;BME280;36499;46.484;13.832;2023-06-22T05:41:44;93563.69;;;20.35;98.85
12471;BME280;36499;46.484;13.832;2023-06-22T05:44:11;93560.03;;;20.56;98.66
12471;BME280;36499;46.484;13.832;2023-06-22T05:46:42;93563.00;;;20.70;97.65
12471;BME280;36499;46.484;13.832;2023-06-22T05:49:10;93558.22;;;20.87;97.09
12471;BME280;36499;46.484;13.832;2023-06-22T05:51:37;93564.59;;;20.86;95.27
12471;BME280;36499;46.484;13.832;2023-06-22T05:54:04;93566.97;;;20.87;94.70
12471;BME280;36499;46.484;13.832;2023-06-22T05:56:31;93556.38;;;20.97;94.79
12471;BME280;36499;46.484;13.832;2023-06-22T05:58:59;93561.72;;;21.18;94.14
12471;BME280;36499;46.484;13.832;2023-06-22T06:01:26;93564.09;;;21.29;93.89
12471;BME280;36499;46.484;13.832;2023-06-22T06:03:53;93564.09;;;21.44;92.78
12471;BME280;36499;46.484;13.832;2023-06-22T06:06:20;93562.22;;;21.55;91.36
12471;BME280;36499;46.484;13.832;2023-06-22T06:08:48;93555.81;;;21.71;90.55
12471;BME280;36499;46.484;13.832;2023-06-22T06:11:15;93554.47;;;21.94;90.70
12471;BME280;36499;46.484;13.832;2023-06-22T06:13:42;93547.50;;;22.13;89.81
12471;BME280;36499;46.484;13.832;2023-06-22T06:16:10;93548.22;;;22.29;88.86
12471;BME280;36499;46.484;13.832;2023-06-22T06:18:37;93552.91;;;22.47;88.57
12471;BME280;36499;46.484;13.832;2023-06-22T06:21:05;93551.84;;;22.48;85.28
12471;BME280;36499;46.484;13.832;2023-06-22T06:23:32;93548.00;;;22.64;85.36
12471;BME280;36499;46.484;13.832;2023-06-22T06:25:59;93546.88;;;22.80;84.83
12471;BME280;36499;46.484;13.832;2023-06-22T06:28:27;93545.25;;;22.84;83.20
12471;BME280;36499;46.484;13.832;2023-06-22T06:30:54;93545.78;;;22.86;83.07
12471;BME280;36499;46.484;13.832;2023-06-22T06:33:22;93545.16;;;23.00;81.59
12471;BME280;36499;46.484;13.832;2023-06-22T06:35:50;93541.94;;;23.03;82.66
12471;BME280;36499;46.484;13.832;2023-06-22T06:38:17;93535.81;;;23.02;81.58
12471;BME280;36499;46.484;13.832;2023-06-22T06:40:44;93536.56;;;23.13;82.52
12471;BME280;36499;46.484;13.832;2023-06-22T06:43:11;93535.41;;;23.24;81.51
12471;BME280;36499;46.484;13.832;2023-06-22T06:45:38;93545.94;;;23.34;81.91
12471;BME280;36499;46.484;13.832;2023-06-22T06:48:05;93532.59;;;23.39;81.68
12471;BME280;36499;46.484;13.832;2023-06-22T06:50:34;93530.13;;;23.48;80.04
12471;BME280;36499;46.484;13.832;2023-06-22T06:53:01;93543.56;;;23.66;78.82
12471;BME280;36499;46.484;13.832;2023-06-22T06:55:28;93529.50;;;23.84;76.93
12471;BME280;36499;46.484;13.832;2023-06-22T06:57:58;93529.38;;;23.95;77.46
12471;BME280;36499;46.484;13.832;2023-06-22T07:00:25;93515.88;;;24.10;76.29
12471;BME280;36499;46.484;13.832;2023-06-22T07:02:53;93508.69;;;24.34;75.52
12471;BME280;36499;46.484;13.832;2023-06-22T07:05:20;93506.53;;;24.55;74.68
12471;BME280;36499;46.484;13.832;2023-06-22T07:07:48;93514.41;;;24.65;72.97
12471;BME280;36499;46.484;13.832;2023-06-22T07:10:15;93506.03;;;24.71;71.20
12471;BME280;36499;46.484;13.832;2023-06-22T07:12:42;93505.88;;;24.81;71.91
12471;BME280;36499;46.484;13.832;2023-06-22T07:15:11;93495.88;;;24.92;71.07
12471;BME280;36499;46.484;13.832;2023-06-22T07:17:38;93495.22;;;25.00;68.77
12471;BME280;36499;46.484;13.832;2023-06-22T07:20:08;93492.16;;;25.25;70.14
12471;BME280;36499;46.484;13.832;2023-06-22T07:22:35;93494.75;;;25.44;69.20
12471;BME280;36499;46.484;13.832;2023-06-22T07:25:06;93480.66;;;25.57;67.50
12471;BME280;36499;46.484;13.832;2023-06-22T07:27:36;93478.19;;;25.74;67.09
12471;BME280;36499;46.484;13.832;2023-06-22T07:30:06;93475.13;;;25.81;65.50
12471;BME280;36499;46.484;13.832;2023-06-22T07:32:34;93476.22;;;26.07;70.06
12471;BME280;36499;46.484;13.832;2023-06-22T07:35:01;93473.94;;;26.28;67.00
12471;BME280;36499;46.484;13.832;2023-06-22T07:37:28;93467.38;;;26.48;67.83
12471;BME280;36499;46.484;13.832;2023-06-22T07:39:56;93472.44;;;26.71;67.55
12471;BME280;36499;46.484;13.832;2023-06-22T07:42:25;93473.59;;;26.93;69.38
12471;BME280;36499;46.484;13.832;2023-06-22T07:44:53;93469.50;;;27.17;68.73
12471;BME280;36499;46.484;13.832;2023-06-22T07:47:20;93463.47;;;27.34;66.18
12471;BME280;36499;46.484;13.832;2023-06-22T07:49:50;93467.09;;;27.38;62.66
12471;BME280;36499;46.484;13.832;2023-06-22T07:52:20;93469.06;;;27.46;62.00
12471;BME280;36499;46.484;13.832;2023-06-22T07:54:47;93459.69;;;27.66;64.47
12471;BME280;36499;46.484;13.832;2023-06-22T07:57:14;93453.94;;;27.81;61.68
12471;BME280;36499;46.484;13.832;2023-06-22T07:59:43;93459.06;;;28.00;61.58
12471;BME280;36499;46.484;13.832;2023-06-22T08:02:10;93457.53;;;28.16;59.18
12471;BME280;36499;46.484;13.832;2023-06-22T08:04:37;93455.19;;;28.32;60.23
12471;BME280;36499;46.484;13.832;2023-06-22T08:07:05;93453.94;;;28.46;59.82
12471;BME280;36499;46.484;13.832;2023-06-22T08:09:32;93459.19;;;28.60;57.94
12471;BME280;36499;46.484;13.832;2023-06-22T08:12:00;93457.81;;;28.71;57.29
12471;BME280;36499;46.484;13.832;2023-06-22T08:14:27;93459.22;;;28.86;58.08
12471;BME280;36499;46.484;13.832;2023-06-22T08:16:56;93455.75;;;29.02;57.37
12471;BME280;36499;46.484;13.832;2023-06-22T08:19:23;93460.28;;;29.19;57.06
12471;BME280;36499;46.484;13.832;2023-06-22T08:21:50;93458.69;;;29.27;54.09
12471;BME280;36499;46.484;13.832;2023-06-22T08:24:17;93461.53;;;29.39;56.46
12471;BME280;36499;46.484;13.832;2023-06-22T08:26:44;93450.16;;;29.42;53.54
12471;BME280;36499;46.484;13.832;2023-06-22T08:29:11;93456.91;;;29.57;53.31
12471;BME280;36499;46.484;13.832;2023-06-22T08:31:38;93453.41;;;29.65;54.07
12471;BME280;36499;46.484;13.832;2023-06-22T08:34:07;93442.31;;;29.75;50.54
12471;BME280;36499;46.484;13.832;2023-06-22T08:36:34;93444.50;;;29.90;50.42
12471;BME280;36499;46.484;13.832;2023-06-22T08:39:03;93440.13;;;30.06;50.89
12471;BME280;36499;46.484;13.832;2023-06-22T08:41:30;93445.97;;;30.08;49.97
12471;BME280;36499;46.484;13.832;2023-06-22T08:43:57;93443.88;;;30.14;48.72
12471;BME280;36499;46.484;13.832;2023-06-22T08:46:25;93444.31;;;30.24;52.76
12471;BME280;36499;46.484;13.832;2023-06-22T08:48:56;93437.88;;;30.37;49.20
12471;BME280;36499;46.484;13.832;2023-06-22T08:51:25;93431.50;;;30.51;50.62
12471;BME280;36499;46.484;13.832;2023-06-22T08:53:52;93434.09;;;30.59;49.37
12471;BME280;36499;46.484;13.832;2023-06-22T08:56:19;93439.13;;;30.69;48.64
12471;BME280;36499;46.484;13.832;2023-06-22T08:58:46;93436.81;;;30.80;50.11
12471;BME280;36499;46.484;13.832;2023-06-22T09:01:13;93432.28;;;30.92;50.73
12471;BME280;36499;46.484;13.832;2023-06-22T09:03:41;93426.66;;;30.98;48.12
12471;BME280;36499;46.484;13.832;2023-06-22T09:06:08;93428.09;;;31.04;49.00
12471;BME280;36499;46.484;13.832;2023-06-22T09:08:37;93421.50;;;30.92;47.23
12471;BME280;36499;46.484;13.832;2023-06-22T09:11:04;93411.13;;;31.03;48.35
12471;BME280;36499;46.484;13.832;2023-06-22T09:13:32;93420.69;;;31.13;47.49
12471;BME280;36499;46.484;13.832;2023-06-22T09:16:00;93424.72;;;31.07;48.08
12471;BME280;36499;46.484;13.832;2023-06-22T09:18:27;93414.28;;;31.05;46.61
12471;BME280;36499;46.484;13.832;2023-06-22T09:20:54;93409.16;;;30.71;46.84
12471;BME280;36499;46.484;13.832;2023-06-22T09:23:21;93417.97;;;30.59;45.97
12471;BME280;36499;46.484;13.832;2023-06-22T09:25:50;93411.84;;;30.71;46.76
12471;BME280;36499;46.484;13.832;2023-06-22T09:28:17;93407.69;;;30.94;47.83
12471;BME280;36499;46.484;13.832;2023-06-22T09:30:44;93412.41;;;30.97;46.06
12471;BME280;36499;46.484;13.832;2023-06-22T09:33:12;93412.13;;;30.99;46.45
12471;BME280;36499;46.484;13.832;2023-06-22T09:35:39;93412.28;;;31.14;45.72
12471;BME280;36499;46.484;13.832;2023-06-22T09:38:06;93406.47;;;31.24;46.85
12471;BME280;36499;46.484;13.832;2023-06-22T09:40:33;93402.56;;;31.34;46.11
12471;BME280;36499;46.484;13.832;2023-06-22T09:43:07;93398.34;;;31.45;44.13
12471;BME280;36499;46.484;13.832;2023-06-22T09:45:34;93396.25;;;31.63;45.18
12471;BME280;36499;46.484;13.832;2023-06-22T09:48:01;93401.59;;;31.51;44.63
12471;BME280;36499;46.484;13.832;2023-06-22T09:50:28;93393.94;;;31.40;44.10
12471;BME280;36499;46.484;13.832;2023-06-22T09:52:55;93390.53;;;31.31;45.21
12471;BME280;36499;46.484;13.832;2023-06-22T09:55:22;93391.34;;;31.44;45.42
12471;BME280;36499;46.484;13.832;2023-06-22T09:57:49;93381.75;;;31.55;44.86
12471;BME280;36499;46.484;13.832;2023-06-22T10:00:18;93395.84;;;31.40;47.14
12471;BME280;36499;46.484;13.832;2023-06-22T10:02:46;93387.72;;;31.61;45.81
12471;BME280;36499;46.484;13.832;2023-06-22T10:05:13;93374.34;;;31.64;45.02
12471;BME280;36499;46.484;13.832;2023-06-22T10:07:40;93383.78;;;31.82;44.81
12471;BME280;36499;46.484;13.832;2023-06-22T10:10:10;93383.09;;;31.98;44.89
12471;BME280;36499;46.484;13.832;2023-06-22T10:12:42;93374.91;;;31.94;44.09
12471;BME280;36499;46.484;13.832;2023-06-22T10:15:10;93373.22;;;32.02;45.89
12471;BME280;36499;46.484;13.832;2023-06-22T10:17:39;93377.38;;;32.11;44.06
12471;BME280;36499;46.484;13.832;2023-06-22T10:20:08;93369.63;;;32.10;43.51
12471;BME280;36499;46.484;13.832;2023-06-22T10:22:39;93364.44;;;32.17;44.29
12471;BME280;36499;46.484;13.832;2023-06-22T10:25:08;93365.66;;;32.19;45.04
12471;BME280;36499;46.484;13.832;2023-06-22T10:27:35;93363.88;;;32.11;44.25
12471;BME280;36499;46.484;13.832;2023-06-22T10:30:03;93358.81;;;32.22;44.75
12471;BME280;36499;46.484;13.832;2023-06-22T10:32:31;93364.50;;;32.45;45.38
12471;BME280;36499;46.484;13.832;2023-06-22T10:35:00;93360.91;;;32.53;46.55
12471;BME280;36499;46.484;13.832;2023-06-22T10:37:27;93367.84;;;32.66;44.08
12471;BME280;36499;46.484;13.832;2023-06-22T10:39:54;93367.84;;;32.66;45.67
12471;BME280;36499;46.484;13.832;2023-06-22T10:42:21;93369.84;;;32.69;45.18
12471;BME280;36499;46.484;13.832;2023-06-22T10:44:48;93367.69;;;33.02;44.88
12471;BME280;36499;46.484;13.832;2023-06-22T10:47:15;93366.00;;;33.25;43.91
12471;BME280;36499;46.484;13.832;2023-06-22T10:49:42;93362.81;;;33.08;43.92
12471;BME280;36499;46.484;13.832;2023-06-22T10:52:11;93359.28;;;33.19;43.54
12471;BME280;36499;46.484;13.832;2023-06-22T10:54:38;93354.19;;;33.02;43.29
12471;BME280;36499;46.484;13.832;2023-06-22T10:57:06;93362.97;;;33.27;43.47
12471;BME280;36499;46.484;13.832;2023-06-22T10:59:33;93358.59;;;33.22;43.81
12471;BME280;36499;46.484;13.832;2023-06-22T11:02:00;93355.03;;;33.34;41.59
12471;BME280;36499;46.484;13.832;2023-06-22T11:04:28;93355.81;;;33.35;41.83
12471;BME280;36499;46.484;13.832;2023-06-22T11:06:55;93346.97;;;33.65;43.30
12471;BME280;36499;46.484;13.832;2023-06-22T11:09:24;93348.53;;;33.66;43.35
12471;BME280;36499;46.484;13.832;2023-06-22T11:11:52;93343.81;;;33.48;41.92
12471;BME280;36499;46.484;13.832;2023-06-22T11:14:20;93343.28;;;33.58;43.60
12471;BME280;36499;46.484;13.832;2023-06-22T11:16:48;93338.59;;;33.70;42.76
12471;BME280;36499;46.484;13.832;2023-06-22T11:19:15;93329.13;;;33.49;41.58
12471;BME280;36499;46.484;13.832;2023-06-22T11:21:42;93337.16;;;33.61;42.69
12471;BME280;36499;46.484;13.832;2023-06-22T11:24:09;93326.88;;;33.51;41.65
12471;BME280;36499;46.484;13.832;2023-06-22T11:26:38;93337.31;;;33.52;41.19
12471;BME280;36499;46.484;13.832;2023-06-22T11:29:05;93331.50;;;33.50;40.56
12471;BME280;36499;46.484;13.832;2023-06-22T11:31:34;93336.19;;;33.22;43.04
12471;BME280;36499;46.484;13.832;2023-06-22T11:34:01;93333.94;;;33.55;41.14
12471;BME280;36499;46.484;13.832;2023-06-22T11:36:29;93330.31;;;33.63;42.13
12471;BME280;36499;46.484;13.832;2023-06-22T11:38:58;93323.88;;;33.56;41.96
12471;BME280;36499;46.484;13.832;2023-06-22T11:41:26;93312.59;;;33.66;42.83
12471;BME280;36499;46.484;13.832;2023-06-22T11:43:54;93324.78;;;33.44;41.78
12471;BME280;36499;46.484;13.832;2023-06-22T11:46:21;93325.16;;;33.74;42.65
12471;BME280;36499;46.484;13.832;2023-06-22T11:48:48;93321.19;;;33.71;42.27
12471;BME280;36499;46.484;13.832;2023-06-22T11:51:15;93306.88;;;33.87;42.97
12471;BME280;36499;46.484;13.832;2023-06-22T11:53:42;93303.88;;;34.07;42.74
12471;BME280;36499;46.484;13.832;2023-06-22T11:56:09;93304.94;;;33.87;43.16
12471;BME280;36499;46.484;13.832;2023-06-22T11:58:36;93299.28;;;33.92;42.98
12471;BME280;36499;46.484;13.832;2023-06-22T12:01:05;93310.03;;;33.89;43.14
12471;BME280;36499;46.484;13.832;2023-06-22T12:03:32;93299.44;;;33.99;44.17
12471;BME280;36499;46.484;13.832;2023-06-22T12:06:00;93308.09;;;33.89;42.21
12471;BME280;36499;46.484;13.832;2023-06-22T12:08:27;93303.94;;;33.76;43.49
12471;BME280;36499;46.484;13.832;2023-06-22T12:10:54;93298.69;;;33.67;43.18
12471;BME280;36499;46.484;13.832;2023-06-22T12:13:21;93299.81;;;33.82;43.30
12471;BME280;36499;46.484;13.832;2023-06-22T12:15:48;93300.81;;;33.74;44.13
12471;BME280;36499;46.484;13.832;2023-06-22T12:18:18;93304.25;;;33.90;43.22
12471;BME280;36499;46.484;13.832;2023-06-22T12:20:47;93292.59;;;34.05;44.54
12471;BME280;36499;46.484;13.832;2023-06-22T12:23:14;93294.00;;;34.15;43.81
12471;BME280;36499;46.484;13.832;2023-06-22T12:25:42;93285.47;;;33.97;42.66
12471;BME280;36499;46.484;13.832;2023-06-22T12:28:09;93286.31;;;33.82;43.10
12471;BME280;36499;46.484;13.832;2023-06-22T12:30:36;93283.66;;;33.86;43.68
12471;BME280;36499;46.484;13.832;2023-06-22T12:33:03;93286.88;;;33.60;43.85
12471;BME280;36499;46.484;13.832;2023-06-22T12:35:31;93287.19;;;33.55;43.55
12471;BME280;36499;46.484;13.832;2023-06-22T12:37:58;93282.75;;;33.31;44.12
12471;BME280;36499;46.484;13.832;2023-06-22T12:40:25;93285.97;;;33.37;43.95
12471;BME280;36499;46.484;13.832;2023-06-22T12:42:52;93275.50;;;33.35;44.78
12471;BME280;36499;46.484;13.832;2023-06-22T12:45:19;93274.47;;;33.40;44.51
12471;BME280;36499;46.484;13.832;2023-06-22T12:47:47;93280.13;;;33.35;44.54
12471;BME280;36499;46.484;13.832;2023-06-22T12:50:15;93275.75;;;33.46;43.88